Time;durP1;ratioP1;P1;durP2;ratioP2;P2;SDS_P1;SDS_P2;PMS_P1;PMS_P2;Temp;Humidity;BMP_temperature;BMP_pressure;BME280_temperature;BME280_humidity;BME280_pressure;Samples;Min_cycle;Max_cycle;Signal;HPM_P1;HPM_P2
2022/05/24 00:01:29;;;;;;;347.73;109.38;;;;;;;;;;6341097;22;20013;-89
2022/05/24 00:03:56;;;;;;;335.60;104.63;;;;;;;;;;6338283;22;20002;-93
2022/05/24 00:06:24;;;;;;;339.95;106.65;;;;;;;;;;6311945;22;20007;-88
2022/05/24 00:08:50;;;;;;;328.35;104.07;;;;;;;;;;6339703;22;20392;-90
2022/05/24 00:11:16;;;;;;;343.40;107.10;;;;;;;;;;6337442;22;20431;-85
2022/05/24 00:13:42;;;;;;;342.17;106.45;;;;;;;;;;6341085;22;20021;-91
2022/05/24 00:16:08;;;;;;;337.52;105.35;;;;;;;;;;6339752;22;20013;-89
2022/05/24 00:18:34;;;;;;;343.20;106.90;;;;;;;;;;6339248;22;20003;-91
2022/05/24 00:21:02;;;;;;;347.85;107.68;;;;;;;;;;6337081;22;19999;-92
2022/05/24 00:23:29;;;;;;;344.48;106.40;;;;;;;;;;6338961;22;20435;-94
2022/05/24 00:25:56;;;;;;;355.35;109.35;;;;;;;;;;6341395;22;20050;-92
2022/05/24 00:28:23;;;;;;;329.48;103.75;;;;;;;;;;6345867;22;20026;-92
2022/05/24 00:30:50;;;;;;;328.00;103.25;;;;;;;;;;6340968;22;20010;-93
2022/05/24 00:33:17;;;;;;;328.67;104.20;;;;;;;;;;6345402;22;20003;-92
2022/05/24 00:35:44;;;;;;;327.20;103.03;;;;;;;;;;6342460;22;19999;-92
2022/05/24 00:38:12;;;;;;;332.15;104.50;;;;;;;;;;6337759;22;19998;-90
2022/05/24 00:40:56;;;;;;;372.05;113.65;;;;;;;;;;6339738;22;20439;-90
2022/05/24 00:43:25;;;;;;;361.65;112.32;;;;;;;;;;6339206;22;20003;-92
2022/05/24 00:45:54;;;;;;;379.67;116.95;;;;;;;;;;6338628;22;19999;-92
2022/05/24 00:48:42;;;;;;;383.77;117.28;;;;;;;;;;6310123;22;20007;-94
2022/05/24 00:51:10;;;;;;;355.58;110.93;;;;;;;;;;6307707;22;20006;-88
2022/05/24 00:53:46;;;;;;;363.88;112.05;;;;;;;;;;6343957;22;19998;-89
2022/05/24 00:56:18;;;;;;;366.00;113.15;;;;;;;;;;6343359;22;20074;-87
2022/05/24 00:58:52;;;;;;;425.98;126.32;;;;;;;;;;6342877;22;20010;-86
2022/05/24 01:01:24;;;;;;;430.10;127.72;;;;;;;;;;6341284;22;20006;-92
2022/05/24 01:03:52;;;;;;;436.35;128.73;;;;;;;;;;6344495;22;20025;-89
2022/05/24 01:06:19;;;;;;;433.92;127.85;;;;;;;;;;6345138;22;20435;-91
2022/05/24 01:08:45;;;;;;;422.33;125.60;;;;;;;;;;6315931;22;20030;-92
2022/05/24 01:11:12;;;;;;;427.02;126.68;;;;;;;;;;6313521;22;19995;-92
2022/05/24 01:13:38;;;;;;;432.67;129.30;;;;;;;;;;6338906;22;20077;-93
2022/05/24 01:16:05;;;;;;;402.90;120.15;;;;;;;;;;6313000;22;20071;-92
2022/05/24 01:18:32;;;;;;;432.15;128.02;;;;;;;;;;6340109;22;20345;-93
2022/05/24 01:21:04;;;;;;;429.92;127.93;;;;;;;;;;6341282;22;20038;-92
2022/05/24 01:23:33;;;;;;;441.02;130.75;;;;;;;;;;6341481;22;19999;-93
2022/05/24 01:26:03;;;;;;;432.98;129.38;;;;;;;;;;6351116;22;20006;-90
2022/05/24 01:28:40;;;;;;;438.58;130.13;;;;;;;;;;6346758;22;20380;-92
2022/05/24 01:31:06;;;;;;;442.55;131.02;;;;;;;;;;6350289;22;19978;-90
2022/05/24 01:36:21;;;;;;;438.98;129.32;;;;;;;;;;6351705;22;20071;-88
2022/05/24 01:38:51;;;;;;;415.35;123.97;;;;;;;;;;6350350;22;20338;-92
2022/05/24 01:41:40;;;;;;;425.20;126.32;;;;;;;;;;6329053;22;20010;-86
2022/05/24 01:44:10;;;;;;;437.25;129.10;;;;;;;;;;6353455;22;20014;-86
2022/05/24 01:46:42;;;;;;;424.85;126.97;;;;;;;;;;6347521;22;20007;-90
2022/05/24 01:49:14;;;;;;;438.50;129.30;;;;;;;;;;6319585;22;20018;-89
2022/05/24 01:51:44;;;;;;;433.17;129.32;;;;;;;;;;6352673;22;20018;-91
2022/05/24 01:54:12;;;;;;;438.58;129.98;;;;;;;;;;6351470;22;19998;-90
2022/05/24 01:56:45;;;;;;;424.58;126.28;;;;;;;;;;6346873;22;20034;-91
2022/05/24 01:59:13;;;;;;;424.75;125.57;;;;;;;;;;6345231;22;20291;-92
2022/05/24 02:01:50;;;;;;;417.95;124.93;;;;;;;;;;6311263;22;20103;-88
2022/05/24 02:04:17;;;;;;;412.75;123.47;;;;;;;;;;6343693;22;19999;-91
2022/05/24 02:06:44;;;;;;;415.63;125.68;;;;;;;;;;6307518;22;20006;-86
2022/05/24 02:09:10;;;;;;;425.98;127.97;;;;;;;;;;6334718;22;19999;-91
2022/05/24 02:11:38;;;;;;;426.77;128.57;;;;;;;;;;6336473;22;20006;-89
2022/05/24 02:14:11;;;;;;;452.35;132.82;;;;;;;;;;6318883;22;20007;-89
2022/05/24 02:16:41;;;;;;;450.70;133.32;;;;;;;;;;6314111;22;20013;-86
2022/05/24 02:19:08;;;;;;;449.42;134.00;;;;;;;;;;6341883;22;19999;-87
2022/05/24 02:21:35;;;;;;;457.45;135.00;;;;;;;;;;6339927;22;20006;-86
2022/05/24 02:24:01;;;;;;;445.88;132.98;;;;;;;;;;6344412;22;20022;-89
2022/05/24 02:26:28;;;;;;;442.65;130.40;;;;;;;;;;6339682;22;20010;-92
2022/05/24 02:28:55;;;;;;;452.30;133.32;;;;;;;;;;6341768;22;19999;-90
2022/05/24 02:31:22;;;;;;;456.55;132.70;;;;;;;;;;6336914;22;20003;-93
2022/05/24 02:33:49;;;;;;;429.87;128.47;;;;;;;;;;6339602;22;20423;-90
2022/05/24 02:36:16;;;;;;;443.25;131.65;;;;;;;;;;6340077;22;20006;-90
2022/05/24 02:38:42;;;;;;;449.48;133.10;;;;;;;;;;6342440;22;20005;-92
2022/05/24 02:43:53;;;;;;;455.77;133.55;;;;;;;;;;6339341;22;20014;-89
2022/05/24 02:46:20;;;;;;;455.20;133.23;;;;;;;;;;6313517;22;20022;-91
2022/05/24 02:48:47;;;;;;;451.58;133.15;;;;;;;;;;6340674;22;20002;-89
2022/05/24 02:51:16;;;;;;;451.00;133.77;;;;;;;;;;6341384;22;20003;-85
2022/05/24 02:53:43;;;;;;;435.77;130.70;;;;;;;;;;6342634;22;19995;-92
2022/05/24 02:56:10;;;;;;;436.33;128.68;;;;;;;;;;6336781;22;20070;-91
2022/05/24 02:58:36;;;;;;;435.08;129.10;;;;;;;;;;6335615;22;19995;-92
2022/05/24 03:01:05;;;;;;;441.20;129.93;;;;;;;;;;6340405;22;20014;-90
2022/05/24 03:03:31;;;;;;;424.35;127.63;;;;;;;;;;6361707;22;20021;-90
2022/05/24 03:05:59;;;;;;;416.00;124.35;;;;;;;;;;6360691;22;19995;-93
2022/05/24 03:11:14;;;;;;;402.65;121.38;;;;;;;;;;6354625;22;20042;-92
2022/05/24 03:16:26;;;;;;;374.55;115.55;;;;;;;;;;6342258;22;20144;-86
2022/05/24 03:18:52;;;;;;;394.77;118.60;;;;;;;;;;6340008;22;19995;-92
2022/05/24 03:21:19;;;;;;;391.55;119.53;;;;;;;;;;6319783;22;20026;-91
2022/05/24 03:23:45;;;;;;;395.35;119.43;;;;;;;;;;6352800;22;19998;-88
2022/05/24 03:26:11;;;;;;;397.63;119.93;;;;;;;;;;6354940;22;20023;-89
2022/05/24 03:28:47;;;;;;;379.05;117.25;;;;;;;;;;6352889;22;20003;-87
2022/05/24 03:31:14;;;;;;;396.73;120.82;;;;;;;;;;6348431;22;20056;-90
2022/05/24 03:33:40;;;;;;;392.33;119.70;;;;;;;;;;6314280;22;19999;-89
2022/05/24 03:36:06;;;;;;;387.95;118.72;;;;;;;;;;6344957;22;20022;-90
2022/05/24 03:38:32;;;;;;;402.00;122.00;;;;;;;;;;6310516;22;20003;-88
2022/05/24 03:40:58;;;;;;;400.17;121.15;;;;;;;;;;6339669;22;20007;-91
2022/05/24 03:43:26;;;;;;;390.55;118.88;;;;;;;;;;6341325;22;20331;-92
2022/05/24 03:46:09;;;;;;;393.88;119.95;;;;;;;;;;6339011;22;20036;-91
2022/05/24 03:48:39;;;;;;;414.02;125.22;;;;;;;;;;6339241;22;19999;-92
2022/05/24 03:51:05;;;;;;;398.80;121.25;;;;;;;;;;6320676;22;20011;-93
2022/05/24 03:53:31;;;;;;;392.65;119.47;;;;;;;;;;6342412;22;19999;-93
2022/05/24 03:55:58;;;;;;;395.23;120.40;;;;;;;;;;6324551;22;20013;-90
2022/05/24 03:58:25;;;;;;;387.83;118.00;;;;;;;;;;6344156;22;20030;-93
2022/05/24 04:00:51;;;;;;;380.85;117.10;;;;;;;;;;6337778;22;19999;-90
2022/05/24 04:03:18;;;;;;;383.17;117.90;;;;;;;;;;6336852;22;20013;-89
2022/05/24 04:05:45;;;;;;;407.38;122.55;;;;;;;;;;6334717;22;19995;-89
2022/05/24 04:08:14;;;;;;;419.02;125.90;;;;;;;;;;6335030;22;20003;-92
2022/05/24 04:10:41;;;;;;;422.73;127.70;;;;;;;;;;6335652;22;20003;-90
2022/05/24 04:13:07;;;;;;;434.63;128.73;;;;;;;;;;6307632;22;20055;-91
2022/05/24 04:15:33;;;;;;;423.40;126.80;;;;;;;;;;6307942;22;20010;-88
2022/05/24 04:17:59;;;;;;;423.80;126.75;;;;;;;;;;6329809;22;20054;-90
2022/05/24 04:20:27;;;;;;;420.25;125.32;;;;;;;;;;6335071;22;20058;-91
2022/05/24 04:22:54;;;;;;;422.67;126.10;;;;;;;;;;6334349;22;20451;-90
2022/05/24 04:25:20;;;;;;;418.05;124.35;;;;;;;;;;6334503;22;20006;-92
2022/05/24 04:27:47;;;;;;;430.73;129.43;;;;;;;;;;6334197;22;20025;-90
2022/05/24 04:30:13;;;;;;;433.13;129.40;;;;;;;;;;6334293;22;20073;-92
2022/05/24 04:32:39;;;;;;;443.35;131.40;;;;;;;;;;6334015;22;20002;-92
2022/05/24 04:35:06;;;;;;;449.73;131.77;;;;;;;;;;6333792;22;20003;-92
2022/05/24 04:37:32;;;;;;;442.13;130.40;;;;;;;;;;6334480;22;20331;-93
2022/05/24 04:39:58;;;;;;;447.90;130.73;;;;;;;;;;6334656;22;20423;-93
2022/05/24 04:42:24;;;;;;;442.33;129.32;;;;;;;;;;6334439;22;20021;-92
2022/05/24 04:44:55;;;;;;;441.05;129.60;;;;;;;;;;6333952;22;20082;-94
2022/05/24 04:47:22;;;;;;;486.23;139.57;;;;;;;;;;6333663;22;20462;-94
2022/05/24 04:49:50;;;;;;;512.97;147.07;;;;;;;;;;6335747;22;20082;-94
2022/05/24 04:52:17;;;;;;;512.33;146.65;;;;;;;;;;6335244;22;20047;-91
2022/05/24 04:54:44;;;;;;;500.98;144.80;;;;;;;;;;6334309;22;20432;-91
2022/05/24 04:57:11;;;;;;;500.92;143.70;;;;;;;;;;6307032;22;20003;-92
2022/05/24 04:59:37;;;;;;;502.17;142.75;;;;;;;;;;6307176;22;20014;-93
2022/05/24 05:02:04;;;;;;;501.02;142.55;;;;;;;;;;6307655;22;20076;-91
2022/05/24 05:04:30;;;;;;;501.77;141.93;;;;;;;;;;6336762;22;20022;-91
2022/05/24 05:06:56;;;;;;;499.50;142.75;;;;;;;;;;6310383;22;20506;-92
2022/05/24 05:09:34;;;;;;;502.33;141.95;;;;;;;;;;6334834;22;19994;-90
2022/05/24 05:12:00;;;;;;;478.87;138.27;;;;;;;;;;6309719;22;20013;-93
2022/05/24 05:14:26;;;;;;;476.85;138.10;;;;;;;;;;6308966;22;19999;-91
2022/05/24 05:20:10;;;;;;;486.33;140.98;;;;;;;;;;6219388;23;20500;-92
2022/05/24 09:16:44;;;;;;;514.78;136.38;;;;;;;;;;5987234;23;4055416;-92
2022/05/24 09:19:23;;;;;;;508.42;134.85;;;;;;;;;;6122540;23;20029;-94
2022/05/24 09:22:02;;;;;;;;;;;;;;;;;;;;;
2022/05/24 09:24:34;;;;;;;509.85;136.10;;;;;;;;;;6125685;23;20129;-95
2022/05/24 09:27:09;;;;;;;505.23;135.15;;;;;;;;;;6124400;23;20006;-94
2022/05/24 09:29:53;;;;;;;499.42;133.02;;;;;;;;;;6122576;23;20021;-92
2022/05/24 09:32:23;;;;;;;501.50;133.82;;;;;;;;;;6123615;23;20037;-94
2022/05/24 09:35:03;;;;;;;493.92;132.57;;;;;;;;;;6122432;23;20066;-93
2022/05/24 09:37:56;;;;;;;484.67;130.50;;;;;;;;;;6123127;23;20435;-94
2022/05/24 09:40:23;;;;;;;479.33;129.60;;;;;;;;;;6121079;23;20013;-94
2022/05/24 09:42:53;;;;;;;463.38;126.05;;;;;;;;;;6122379;23;20002;-93
2022/05/24 09:45:27;;;;;;;459.65;124.60;;;;;;;;;;6121259;23;20006;-94
2022/05/24 09:48:29;;;;;;;;;;;;;;;;;;;;;
2022/05/24 09:51:25;;;;;;;460.27;124.32;;;;;;;;;;6122988;23;20077;-93
2022/05/24 09:57:17;;;;;;;460.85;125.28;;;;;;;;;;6028288;23;20014;-93
2022/05/24 10:00:06;;;;;;;;;;;;;;;;;;;;;
2022/05/24 10:03:21;;;;;;;433.80;120.25;;;;;;;;;;6122181;23;20093;-94
2022/05/24 10:05:44;;;;;;;443.48;121.78;;;;;;;;;;6115426;23;20035;-93
2022/05/24 10:14:43;;;;;;;441.48;120.57;;;;;;;;;;6122174;23;20077;-92
2022/05/24 10:17:18;;;;;;;;;;;;;;;;;;6121257;23;20089;-92
2022/05/24 10:23:31;;;;;;;;;;;;;;;;;;;;;
2022/05/24 10:29:32;;;;;;;;;;;;;;;;;;;;;
2022/05/24 10:45:17;;;;;;;;;;;;;;;;;;;;;
2022/05/24 10:48:25;;;;;;;;;;;;;;;;;;;;;
2022/05/24 10:51:10;;;;;;;;;;;;;;;;;;;;;
2022/05/24 10:54:48;;;;;;;;;;;;;;;;;;;;;
2022/05/24 11:00:53;;;;;;;427.88;118.40;;;;;;;;;;5895020;24;20164;-93
2022/05/24 11:07:11;;;;;;;;;;;;;;;;;;;;;
2022/05/24 11:22:29;;;;;;;;;;;;;;;;;;;;;
2022/05/24 11:41:04;;;;;;;;;;;;;;;;;;;;;
2022/05/24 11:50:26;;;;;;;;;;;;;;;;;;;;;
2022/05/24 11:56:45;;;;;;;;;;;;;;;;;;;;;
2022/05/24 12:02:37;;;;;;;;;;;;;;;;;;;;;
2022/05/24 13:46:55;;;;;;;;;;;;;;;;;;;;;
2022/05/24 14:50:38;;;;;;;396.27;113.10;;;;;;;;;;5711831;25;20261;-91
2022/05/24 14:59:29;;;;;;;402.67;114.80;;;;;;;;;;5785469;24;20073;-93
2022/05/24 15:02:31;;;;;;;388.67;111.93;;;;;;;;;;5870474;24;20014;-92
2022/05/24 15:17:44;;;;;;;396.02;113.75;;;;;;;;;;5923248;24;20523;-93
2022/05/24 15:20:41;;;;;;;;;;;;;;;;;;;;;
2022/05/24 15:58:58;;;;;;;393.80;112.22;;;;;;;;;;6317864;22;20014;-90
2022/05/24 16:20:49;;;;;;;359.08;105.45;;;;;;;;;;6047341;23;20015;-91
2022/05/24 16:23:36;;;;;;;348.63;102.75;;;;;;;;;;6021284;23;20022;-92
2022/05/24 16:28:58;;;;;;;335.45;99.97;;;;;;;;;;6101538;23;20006;-95
2022/05/24 16:34:40;;;;;;;;;;;;;;;;;;;;;
2022/05/24 16:37:30;;;;;;;295.55;91.85;;;;;;;;;;6127561;23;20069;-92
2022/05/24 16:39:58;;;;;;;308.27;94.13;;;;;;;;;;6153023;23;20071;-94
2022/05/24 16:42:47;;;;;;;319.80;97.25;;;;;;;;;;6157678;23;20008;-95
2022/05/24 16:45:51;;;;;;;308.08;94.43;;;;;;;;;;6135602;23;20020;-94
2022/05/24 16:48:23;;;;;;;316.48;96.15;;;;;;;;;;6143677;23;20398;-92
2022/05/24 16:50:50;;;;;;;302.55;93.55;;;;;;;;;;6214067;22;20003;-91
2022/05/24 16:53:19;;;;;;;295.38;92.07;;;;;;;;;;6332345;22;20003;-90
2022/05/24 16:58:53;;;;;;;302.52;93.28;;;;;;;;;;6335411;22;20072;-93
2022/05/24 17:01:41;;;;;;;;;;;;;;;;;;;;;
2022/05/24 17:04:49;;;;;;;284.52;89.30;;;;;;;;;;6335017;22;20066;-92
2022/05/24 17:23:25;;;;;;;;;;;;;;;;;;;;;
2022/05/24 17:29:42;;;;;;;;;;;;;;;;;;;;;
